Kazi Nazrul Islam Airport


Codes: VEDG/RDP
Name: Kazi Nazrul Islam Airport
City: Durgapur
Country: India
Elevation: 300 ft.

Photos at Kazi Nazrul Islam Airport


   Photos courtesy of SpottingLog. You can add your own sightings and photos by signing up for a free trial today.



No photos found.

Weather at Kazi Nazrul Islam Airport


Time (UTC)DescriptionTempratureWindCloud coverageVisibilityPressureHumidity
26-Jun-2024 00:00Overcast Clouds30°C9 mph, SE100%10000m998hPa69%
26-Jun-2024 03:00Overcast Clouds32°C9 mph, SE100%10000m1000hPa58%
26-Jun-2024 06:00Broken Clouds38°C9 mph, SE82%10000m1000hPa36%
26-Jun-2024 09:00Broken Clouds40°C9 mph, SE57%10000m996hPa30%
26-Jun-2024 12:00Broken Clouds37°C16 mph, SE79%10000m997hPa39%
26-Jun-2024 15:00Overcast Clouds34°C13 mph, SE100%10000m1000hPa50%
26-Jun-2024 18:00Overcast Clouds32°C11 mph, S100%10000m1001hPa57%
26-Jun-2024 21:00Overcast Clouds31°C11 mph, S100%10000m999hPa63%
27-Jun-2024 00:00Broken Clouds30°C7 mph, S81%10000m1001hPa66%
27-Jun-2024 03:00Overcast Clouds33°C9 mph, S100%10000m1003hPa56%
27-Jun-2024 06:00Overcast Clouds38°C9 mph, SE100%10000m1001hPa40%
27-Jun-2024 09:00Light Rain37°C11 mph, SE100%10000m998hPa40%
27-Jun-2024 12:00Light Rain35°C13 mph, SE100%10000m999hPa48%
27-Jun-2024 15:00Overcast Clouds33°C11 mph, SE100%10000m1001hPa56%
27-Jun-2024 18:00Light Rain30°C11 mph, SE96%10000m1002hPa69%
27-Jun-2024 21:00Light Rain29°C9 mph, SE98%10000m999hPa74%
28-Jun-2024 00:00Overcast Clouds29°C7 mph, SE98%10000m1000hPa76%
28-Jun-2024 03:00Overcast Clouds32°C7 mph, E98%10000m1001hPa62%
28-Jun-2024 06:00Light Rain35°C7 mph, NE97%10000m999hPa50%
28-Jun-2024 09:00Light Rain35°C9 mph, E97%10000m997hPa48%
28-Jun-2024 12:00Light Rain34°C9 mph, E98%10000m997hPa54%
28-Jun-2024 15:00Overcast Clouds33°C7 mph, SE100%10000m999hPa59%
28-Jun-2024 18:00Light Rain31°C9 mph, SE100%10000m999hPa67%
28-Jun-2024 21:00Light Rain30°C9 mph, SE99%10000m998hPa74%
29-Jun-2024 00:00Moderate Rain29°C7 mph, SE99%10000m998hPa77%
29-Jun-2024 03:00Moderate Rain32°C7 mph, SE100%10000m999hPa66%
29-Jun-2024 06:00Light Rain35°C7 mph, SE100%10000m998hPa53%
29-Jun-2024 09:00Light Rain34°C4 mph, S100%10000m997hPa52%
29-Jun-2024 12:00Light Rain35°C7 mph, SE100%10000m996hPa48%
29-Jun-2024 15:00Light Rain31°C9 mph, S100%10000m998hPa69%
29-Jun-2024 18:00Moderate Rain30°C7 mph, SW100%10000m998hPa75%
29-Jun-2024 21:00Light Rain30°C9 mph, SW100%10000m997hPa76%
30-Jun-2024 00:00Moderate Rain28°C11 mph, NW100%10000m998hPa82%
30-Jun-2024 03:00Moderate Rain28°C7 mph, NW100%10000m999hPa82%
30-Jun-2024 06:00Light Rain30°C7 mph, NW100%10000m999hPa75%
30-Jun-2024 09:00Light Rain31°C7 mph, W100%10000m997hPa66%
30-Jun-2024 12:00Light Rain29°C11 mph, SW100%10000m997hPa73%
30-Jun-2024 15:00Light Rain28°C9 mph, SW100%10000m999hPa77%
30-Jun-2024 18:00Overcast Clouds28°C9 mph, SW100%10000m999hPa78%
30-Jun-2024 21:00Light Rain28°C9 mph, SW100%10000m997hPa81%